createdAt,value
2023-03-16T00:01:11.847Z,20.38
2023-03-16T00:03:41.567Z,21.27
2023-03-16T00:06:11.493Z,22.98
2023-03-16T00:08:43.238Z,22.25
2023-03-16T00:11:15.600Z,23.00
2023-03-16T00:13:45.439Z,22.38
2023-03-16T00:16:17.237Z,21.48
2023-03-16T00:18:47.070Z,22.35
2023-03-16T00:21:17.495Z,23.10
2023-03-16T00:23:47.305Z,21.92
2023-03-16T00:26:19.984Z,22.38
2023-03-16T00:28:49.756Z,22.83
2023-03-16T00:31:19.653Z,22.70
2023-03-16T00:33:49.428Z,22.63
2023-03-16T00:36:19.631Z,23.30
2023-03-16T00:38:50.088Z,23.92
2023-03-16T00:41:22.992Z,23.35
2023-03-16T00:43:53.787Z,24.00
2023-03-16T00:46:26.538Z,23.83
2023-03-16T00:48:56.364Z,23.05
2023-03-16T00:51:26.160Z,22.48
2023-03-16T00:53:55.954Z,22.65
2023-03-16T00:56:29.065Z,23.02
2023-03-16T00:58:58.972Z,22.13
2023-03-16T01:01:28.774Z,21.13
2023-03-16T01:03:59.747Z,21.88
2023-03-16T01:06:29.773Z,23.48
2023-03-16T01:08:59.541Z,23.35
2023-03-16T01:11:33.740Z,23.27
2023-03-16T01:14:04.075Z,23.02
2023-03-16T01:16:34.113Z,24.48
2023-03-16T01:19:04.372Z,23.23
2023-03-16T01:21:34.494Z,23.50
2023-03-16T01:24:04.524Z,25.33
2023-03-16T01:26:36.971Z,23.17
2023-03-16T01:29:06.747Z,25.13
2023-03-16T01:31:36.539Z,23.90
2023-03-16T01:34:06.351Z,24.92
2023-03-16T01:36:36.125Z,24.95
2023-03-16T01:39:06.803Z,23.85
2023-03-16T01:41:39.350Z,25.35
2023-03-16T01:44:11.325Z,25.15
2023-03-16T01:46:41.872Z,23.88
2023-03-16T01:49:15.012Z,25.00
2023-03-16T01:51:47.959Z,25.48
2023-03-16T01:54:26.242Z,24.20
2023-03-16T01:57:04.692Z,25.10
2023-03-16T01:59:37.633Z,22.85
2023-03-16T02:02:08.672Z,21.95
2023-03-16T02:04:44.849Z,24.02
2023-03-16T02:07:17.701Z,25.00
2023-03-16T02:09:51.739Z,23.25
2023-03-16T02:12:25.039Z,23.73
2023-03-16T02:14:55.540Z,23.25
2023-03-16T02:17:28.014Z,22.98
2023-03-16T02:20:10.942Z,23.77
2023-03-16T02:22:45.494Z,22.75
2023-03-16T02:27:55.983Z,22.50
2023-03-16T02:30:29.044Z,24.15
2023-03-16T02:32:59.489Z,24.42
2023-03-16T02:35:29.382Z,25.20
2023-03-16T02:37:59.189Z,24.83
2023-03-16T02:40:31.254Z,25.15
2023-03-16T02:43:04.518Z,25.45
2023-03-16T02:45:42.557Z,26.25
2023-03-16T02:48:16.728Z,25.85
2023-03-16T02:50:49.597Z,24.52
2023-03-16T02:53:19.907Z,25.80
2023-03-16T02:55:50.066Z,27.10
2023-03-16T02:58:20.307Z,25.92
2023-03-16T03:00:53.251Z,25.77
2023-03-16T03:03:23.195Z,24.67
2023-03-16T03:05:53.011Z,25.35
2023-03-16T03:08:23.537Z,25.05
2023-03-16T03:10:53.319Z,25.23
2023-03-16T03:13:24.140Z,25.77
2023-03-16T03:15:56.583Z,24.67
2023-03-16T03:18:27.168Z,24.25
2023-03-16T03:20:56.978Z,24.63
2023-03-16T03:23:26.838Z,24.40
2023-03-16T03:26:00.944Z,24.42
2023-03-16T03:28:30.723Z,23.95
2023-03-16T03:31:04.118Z,25.05
2023-03-16T03:33:34.008Z,23.37
2023-03-16T03:36:03.781Z,24.35
2023-03-16T03:38:33.561Z,24.85
2023-03-16T03:41:03.977Z,25.52
2023-03-16T03:43:33.750Z,24.63
2023-03-16T03:46:07.542Z,24.48
2023-03-16T03:48:38.804Z,21.98
2023-03-16T03:51:09.077Z,23.38
2023-03-16T03:53:38.955Z,23.25
2023-03-16T03:56:09.635Z,22.45
2023-03-16T03:58:39.727Z,22.45
2023-03-16T04:01:12.048Z,20.65
2023-03-16T04:03:44.809Z,21.10
2023-03-16T04:06:14.962Z,20.25
2023-03-16T04:08:45.105Z,22.27
2023-03-16T04:11:14.903Z,21.67
2023-03-16T04:13:44.726Z,20.77
2023-03-16T04:16:17.936Z,22.33
2023-03-16T04:18:47.767Z,20.92
2023-03-16T04:21:19.296Z,21.05
2023-03-16T04:23:49.435Z,19.95
2023-03-16T04:26:19.609Z,20.52
2023-03-16T04:28:49.450Z,19.17
2023-03-16T04:31:22.595Z,20.45
2023-03-16T04:33:54.623Z,20.52
2023-03-16T04:36:26.128Z,20.90
2023-03-16T04:38:55.875Z,20.50
2023-03-16T04:41:26.332Z,21.13
2023-03-16T04:43:57.696Z,20.08
2023-03-16T04:46:30.360Z,19.23
2023-03-16T04:49:00.225Z,20.35
2023-03-16T04:51:30.495Z,20.55
2023-03-16T04:54:00.894Z,18.73
2023-03-16T04:56:30.616Z,18.88
2023-03-16T04:59:00.443Z,19.08
2023-03-16T05:01:33.015Z,20.27
2023-03-16T05:04:02.979Z,18.80
2023-03-16T05:06:32.916Z,19.25
2023-03-16T05:09:05.597Z,17.65
2023-03-16T05:11:35.364Z,20.10
2023-03-16T05:14:05.349Z,19.95
2023-03-16T05:16:37.818Z,21.42
2023-03-16T05:19:07.611Z,20.08
2023-03-16T05:21:38.763Z,18.85
2023-03-16T05:24:09.348Z,19.67
2023-03-16T05:26:39.106Z,20.13
2023-03-16T05:29:08.961Z,20.83
2023-03-16T05:31:41.391Z,20.80
2023-03-16T05:34:12.397Z,20.10
2023-03-16T05:36:42.129Z,19.70
2023-03-16T05:39:11.893Z,20.83
2023-03-16T05:41:41.819Z,20.33
2023-03-16T05:44:11.919Z,22.67
2023-03-16T05:46:45.961Z,20.00
2023-03-16T05:49:16.115Z,18.92
2023-03-16T05:51:46.114Z,19.83
2023-03-16T05:54:15.859Z,20.30
2023-03-16T05:56:45.710Z,19.83
2023-03-16T05:59:15.707Z,21.02
2023-03-16T06:01:49.498Z,21.33
2023-03-16T06:04:19.444Z,19.08
2023-03-16T06:06:49.224Z,19.35
2023-03-16T06:09:19.101Z,20.58
2023-03-16T06:11:48.931Z,17.77
2023-03-16T06:14:18.710Z,18.25
2023-03-16T06:16:51.092Z,20.23
2023-03-16T06:19:21.708Z,19.00
2023-03-16T06:21:51.474Z,18.10
2023-03-16T06:24:21.292Z,18.27
2023-03-16T06:26:51.010Z,18.08
2023-03-16T06:29:20.744Z,15.80
2023-03-16T06:31:54.704Z,17.48
2023-03-16T06:34:24.597Z,16.92
2023-03-16T06:36:54.349Z,17.05
2023-03-16T06:39:24.103Z,16.02
2023-03-16T06:41:53.843Z,16.38
2023-03-16T06:44:23.753Z,15.73
2023-03-16T06:46:56.401Z,15.20
2023-03-16T06:49:26.197Z,15.75
2023-03-16T06:51:56.692Z,15.60
2023-03-16T06:54:27.008Z,15.18
2023-03-16T06:56:56.816Z,13.45
2023-03-16T06:59:26.729Z,14.23
2023-03-16T07:01:59.045Z,13.40
2023-03-16T07:04:28.984Z,13.35
2023-03-16T07:06:58.785Z,14.13
2023-03-16T07:09:29.226Z,14.30
2023-03-16T07:11:59.079Z,13.85
2023-03-16T07:14:28.866Z,14.10
2023-03-16T07:17:01.716Z,14.27
2023-03-16T07:19:31.989Z,14.77
2023-03-16T07:22:02.851Z,14.20
2023-03-16T07:24:33.261Z,13.48
2023-03-16T07:27:03.091Z,12.73
2023-03-16T07:29:32.860Z,13.73
2023-03-16T07:32:05.233Z,12.43
2023-03-16T07:34:35.321Z,13.10
2023-03-16T07:37:05.358Z,12.45
2023-03-16T07:39:35.140Z,13.48
2023-03-16T07:42:04.935Z,12.10
2023-03-16T07:44:34.940Z,12.05
2023-03-16T07:47:07.638Z,12.13
2023-03-16T07:49:37.513Z,11.60
2023-03-16T07:52:07.644Z,11.80
2023-03-16T07:54:37.695Z,10.77
2023-03-16T07:57:07.562Z,11.65
2023-03-16T07:59:38.526Z,11.70
2023-03-16T08:02:15.168Z,12.13
2023-03-16T08:04:45.067Z,12.00
2023-03-16T08:07:16.553Z,11.45
2023-03-16T08:09:46.686Z,21.15
2023-03-16T08:12:16.622Z,10.77
2023-03-16T08:14:46.780Z,10.65
2023-03-16T08:17:19.183Z,9.68
2023-03-16T08:19:48.965Z,9.70
2023-03-16T08:22:19.028Z,10.13
2023-03-16T08:24:49.083Z,9.30
2023-03-16T08:27:19.783Z,10.25
2023-03-16T08:29:49.592Z,10.38
2023-03-16T08:32:22.079Z,9.82
2023-03-16T08:34:52.595Z,9.52
2023-03-16T08:37:22.389Z,9.65
2023-03-16T08:39:53.155Z,9.02
2023-03-16T08:42:23.800Z,8.93
2023-03-16T08:44:55.275Z,9.52
2023-03-16T08:47:27.685Z,9.88
2023-03-16T08:49:57.496Z,9.45
2023-03-16T08:52:27.256Z,8.40
2023-03-16T08:55:03.412Z,8.73
2023-03-16T08:57:34.390Z,8.35
2023-03-16T09:00:12.638Z,9.00
2023-03-16T09:02:45.749Z,8.73
2023-03-16T09:05:18.276Z,8.43
2023-03-16T09:07:48.997Z,8.93
2023-03-16T09:10:19.860Z,8.50
2023-03-16T09:12:49.642Z,9.55
2023-03-16T09:15:19.663Z,9.00
2023-03-16T09:17:53.204Z,9.27
2023-03-16T09:20:26.999Z,8.53
2023-03-16T09:22:59.676Z,9.00
2023-03-16T09:25:29.715Z,7.95
2023-03-16T09:28:00.557Z,8.27
2023-03-16T09:30:31.149Z,8.48
2023-03-16T09:33:04.269Z,7.60
2023-03-16T09:35:35.276Z,8.82
2023-03-16T09:38:07.277Z,8.70
2023-03-16T09:40:39.590Z,8.27
2023-03-16T09:43:24.955Z,7.90
2023-03-16T09:46:03.998Z,8.15
2023-03-16T09:48:41.195Z,7.13
2023-03-16T09:51:21.059Z,8.13
2023-03-16T09:53:56.598Z,7.38
2023-03-16T09:56:32.258Z,7.93
2023-03-16T09:59:03.232Z,10.68
2023-03-16T10:01:42.700Z,7.88
2023-03-16T10:04:25.017Z,7.97
2023-03-16T10:07:03.443Z,6.10
2023-03-16T10:09:39.620Z,6.10
2023-03-16T10:12:11.371Z,7.07
2023-03-16T10:14:47.708Z,6.88
2023-03-16T10:17:20.903Z,7.68
2023-03-16T10:19:58.059Z,7.20
2023-03-16T10:22:30.498Z,6.18
2023-03-16T10:25:09.368Z,7.10
2023-03-16T10:27:42.048Z,6.53
2023-03-16T10:30:28.300Z,6.50
2023-03-16T10:32:59.574Z,7.90
2023-03-16T10:35:43.225Z,6.05
2023-03-16T10:38:30.947Z,6.07
2023-03-16T10:41:00.825Z,5.75
2023-03-16T10:43:32.262Z,6.03
2023-03-16T10:46:04.242Z,5.70
2023-03-16T10:48:36.012Z,4.88
2023-03-16T10:51:13.716Z,5.50
2023-03-16T10:53:45.886Z,4.93
2023-03-16T10:56:22.643Z,5.18
2023-03-16T10:58:52.431Z,5.07
2023-03-16T11:01:26.879Z,5.28
2023-03-16T11:03:58.098Z,5.10
2023-03-16T11:06:33.242Z,5.20
2023-03-16T11:09:08.896Z,4.57
2023-03-16T11:11:39.792Z,4.70
2023-03-16T11:14:16.503Z,4.50
2023-03-16T11:16:53.154Z,4.65
2023-03-16T11:19:27.318Z,4.45
2023-03-16T11:22:04.643Z,4.43
2023-03-16T11:24:45.199Z,4.32
2023-03-16T11:27:21.430Z,4.57
2023-03-16T11:30:01.862Z,3.90
2023-03-16T11:32:36.457Z,4.53
2023-03-16T11:35:14.710Z,4.20
2023-03-16T11:37:59.407Z,4.65
2023-03-16T11:40:41.188Z,4.13
2023-03-16T11:43:42.381Z,4.28
2023-03-16T11:46:20.752Z,3.65
2023-03-16T11:48:59.995Z,3.45
2023-03-16T11:51:42.342Z,3.60
2023-03-16T11:54:30.845Z,3.70
2023-03-16T11:57:03.476Z,4.35
2023-03-16T12:00:01.531Z,3.80
2023-03-16T12:02:42.315Z,3.70
2023-03-16T12:05:33.406Z,3.55
2023-03-16T12:08:15.165Z,3.90
2023-03-16T12:10:54.670Z,3.85
2023-03-16T12:13:37.675Z,3.60
2023-03-16T12:16:13.081Z,3.65
2023-03-16T12:18:48.490Z,3.58
2023-03-16T12:21:23.074Z,3.53
2023-03-16T12:23:55.408Z,3.25
2023-03-16T12:26:31.510Z,3.20
2023-03-16T12:29:05.731Z,3.17
2023-03-16T12:31:44.127Z,3.72
2023-03-16T12:34:25.934Z,3.60
2023-03-16T12:37:17.110Z,3.28
2023-03-16T12:40:12.261Z,3.28
2023-03-16T12:42:56.265Z,3.47
2023-03-16T12:45:35.257Z,3.00
2023-03-16T12:48:17.317Z,2.97
2023-03-16T12:50:55.919Z,3.08
2023-03-16T12:53:31.329Z,3.00
2023-03-16T12:56:08.776Z,2.72
2023-03-16T12:58:45.508Z,3.53
2023-03-16T13:01:16.821Z,2.92
2023-03-16T13:03:49.547Z,2.90
2023-03-16T13:06:24.906Z,2.95
2023-03-16T13:08:59.748Z,2.78
2023-03-16T13:11:30.190Z,2.35
2023-03-16T13:14:13.495Z,2.63
2023-03-16T13:16:45.482Z,2.83
2023-03-16T13:19:29.919Z,3.25
2023-03-16T13:22:20.946Z,2.65
2023-03-16T13:24:56.071Z,2.85
2023-03-16T13:27:30.724Z,2.88
2023-03-16T13:30:05.326Z,2.72
2023-03-16T13:32:36.626Z,2.95
2023-03-16T13:35:10.771Z,2.95
2023-03-16T13:37:43.706Z,2.63
2023-03-16T13:40:23.199Z,3.03
2023-03-16T13:42:56.236Z,3.17
2023-03-16T13:45:34.745Z,2.75
2023-03-16T13:48:05.534Z,3.00
2023-03-16T13:50:38.665Z,2.78
2023-03-16T13:53:17.239Z,3.13
2023-03-16T13:55:50.276Z,3.08
2023-03-16T13:58:25.966Z,3.10
2023-03-16T14:01:03.520Z,2.78
2023-03-16T14:03:37.033Z,2.35
2023-03-16T14:06:07.985Z,2.58
2023-03-16T14:08:38.177Z,3.08
2023-03-16T14:11:08.108Z,2.85
2023-03-16T14:13:39.591Z,2.80
2023-03-16T14:16:18.638Z,2.85
2023-03-16T14:18:51.083Z,2.70
2023-03-16T14:21:24.701Z,2.38
2023-03-16T14:23:56.571Z,2.90
2023-03-16T14:26:27.203Z,2.65
2023-03-16T14:29:00.680Z,2.92
2023-03-16T14:31:41.079Z,2.83
2023-03-16T14:34:24.615Z,3.13
2023-03-16T14:36:54.363Z,2.88
2023-03-16T14:39:29.808Z,2.92
2023-03-16T14:41:59.676Z,2.30
2023-03-16T14:44:34.490Z,2.90
2023-03-16T14:47:08.531Z,2.45
2023-03-16T14:49:43.323Z,2.65
2023-03-16T14:52:24.874Z,2.25
2023-03-16T14:54:55.250Z,2.95
2023-03-16T14:57:25.936Z,2.58
2023-03-16T14:59:56.135Z,3.17
2023-03-16T15:02:32.480Z,3.30
2023-03-16T15:05:03.738Z,3.13
2023-03-16T15:07:36.830Z,2.85
2023-03-16T15:10:13.329Z,2.70
2023-03-16T15:12:50.345Z,3.30
2023-03-16T15:15:22.978Z,3.33
2023-03-16T15:17:56.289Z,3.30
2023-03-16T15:20:32.778Z,3.37
2023-03-16T15:23:04.935Z,3.65
2023-03-16T15:25:39.880Z,3.53
2023-03-16T15:28:17.379Z,3.35
2023-03-16T15:30:48.778Z,3.60
2023-03-16T15:33:22.186Z,3.40
2023-03-16T15:35:55.593Z,3.83
2023-03-16T15:38:28.044Z,3.72
2023-03-16T15:40:58.307Z,3.95
2023-03-16T15:43:31.072Z,4.38
2023-03-16T15:46:04.062Z,3.75
2023-03-16T15:48:36.957Z,3.25
2023-03-16T15:51:11.574Z,4.10
2023-03-16T15:53:43.829Z,3.65
2023-03-16T15:56:16.599Z,3.78
2023-03-16T15:58:48.283Z,4.25
2023-03-16T16:01:24.342Z,3.70
2023-03-16T16:03:59.115Z,3.80
2023-03-16T16:06:30.475Z,4.15
2023-03-16T16:09:00.313Z,4.05
2023-03-16T16:11:30.977Z,3.95
2023-03-16T16:14:02.188Z,4.50
2023-03-16T16:16:33.794Z,3.50
2023-03-16T16:19:06.204Z,4.22
2023-03-16T16:21:36.807Z,4.07
2023-03-16T16:24:07.268Z,4.05
2023-03-16T16:26:51.687Z,4.25
2023-03-16T16:29:26.744Z,5.53
2023-03-16T16:31:56.859Z,3.88
2023-03-16T16:34:29.459Z,3.80
2023-03-16T16:36:59.941Z,4.43
2023-03-16T16:39:29.847Z,4.32
2023-03-16T16:41:59.749Z,3.80
2023-03-16T16:44:35.285Z,3.70
2023-03-16T16:47:08.363Z,4.05
2023-03-16T16:49:40.792Z,4.00
2023-03-16T16:52:15.294Z,3.33
2023-03-16T16:57:20.366Z,3.20
2023-03-16T16:59:51.540Z,3.17
2023-03-16T17:02:31.949Z,3.08
2023-03-16T17:05:04.419Z,3.40
2023-03-16T17:07:34.217Z,3.30
2023-03-16T17:10:04.135Z,3.15
2023-03-16T17:12:35.620Z,3.22
2023-03-16T17:15:05.453Z,2.97
2023-03-16T17:17:35.215Z,2.63
2023-03-16T17:20:16.533Z,2.40
2023-03-16T17:22:49.385Z,2.38
2023-03-16T17:25:19.791Z,2.50
2023-03-16T17:27:51.372Z,2.40
2023-03-16T17:30:27.599Z,2.50
2023-03-16T17:32:59.461Z,2.53
2023-03-16T17:35:32.265Z,2.58
2023-03-16T17:38:02.217Z,2.78
2023-03-16T17:40:33.597Z,2.70
2023-03-16T17:43:03.632Z,2.30
2023-03-16T17:45:33.816Z,2.63
2023-03-16T17:48:05.267Z,2.75
2023-03-16T17:50:37.589Z,3.13
2023-03-16T17:53:08.040Z,2.50
2023-03-16T17:55:38.740Z,2.47
2023-03-16T17:58:08.937Z,2.60
2023-03-16T18:00:40.384Z,3.35
2023-03-16T18:03:15.055Z,2.97
2023-03-16T18:05:47.902Z,3.10
2023-03-16T18:08:20.571Z,3.10
2023-03-16T18:10:52.936Z,3.13
2023-03-16T18:13:27.017Z,2.40
2023-03-16T18:15:57.766Z,2.58
2023-03-16T18:18:31.246Z,2.88
2023-03-16T18:21:03.742Z,3.03
2023-03-16T18:23:35.332Z,3.70
2023-03-16T18:26:08.945Z,2.65
2023-03-16T18:28:38.722Z,2.58
2023-03-16T18:31:12.621Z,3.20
2023-03-16T18:33:45.613Z,2.97
2023-03-16T18:36:19.876Z,3.15
2023-03-16T18:38:51.078Z,3.28
2023-03-16T18:41:25.329Z,3.35
2023-03-16T18:43:56.705Z,3.78
2023-03-16T18:46:29.069Z,3.65
2023-03-16T18:49:02.101Z,3.20
2023-03-16T18:51:34.704Z,3.65
2023-03-16T18:54:04.928Z,3.72
2023-03-16T18:56:34.779Z,3.45
2023-03-16T18:59:04.577Z,3.70
2023-03-16T19:01:36.147Z,3.50
2023-03-16T19:04:06.664Z,3.88
2023-03-16T19:06:39.336Z,4.30
2023-03-16T19:09:15.649Z,3.83
2023-03-16T19:11:46.973Z,3.78
2023-03-16T19:14:19.336Z,4.20
2023-03-16T19:16:49.615Z,3.83
2023-03-16T19:19:21.345Z,3.67
2023-03-16T19:21:56.420Z,3.95
2023-03-16T19:24:29.311Z,3.70
2023-03-16T19:26:59.563Z,4.90
2023-03-16T19:29:33.554Z,4.68
2023-03-16T19:32:03.877Z,4.10
2023-03-16T19:34:33.634Z,4.57
2023-03-16T19:37:06.426Z,4.75
2023-03-16T19:39:36.448Z,5.13
2023-03-16T19:42:07.525Z,4.13
2023-03-16T19:44:37.468Z,4.13
2023-03-16T19:47:08.392Z,4.60
2023-03-16T19:49:38.182Z,4.05
2023-03-16T19:52:14.487Z,4.30
2023-03-16T19:54:44.296Z,3.95
2023-03-16T19:57:16.631Z,4.28
2023-03-16T19:59:49.567Z,4.28
2023-03-16T20:02:29.226Z,4.28
2023-03-16T20:04:59.418Z,5.20
2023-03-16T20:07:37.782Z,6.07
2023-03-16T20:10:08.242Z,6.07
2023-03-16T20:12:45.603Z,4.22
2023-03-16T20:15:19.955Z,4.80
2023-03-16T20:17:50.645Z,4.88
2023-03-16T20:20:23.531Z,5.40
2023-03-16T20:22:59.388Z,5.30
2023-03-16T20:25:33.001Z,5.00
2023-03-16T20:28:05.199Z,4.68
2023-03-16T20:30:35.133Z,5.35
2023-03-16T20:33:04.926Z,4.65
2023-03-16T20:35:34.903Z,5.65
2023-03-16T20:38:13.179Z,5.18
2023-03-16T20:40:43.591Z,5.53
2023-03-16T20:43:25.260Z,5.00
2023-03-16T20:45:56.807Z,5.20
2023-03-16T20:48:27.568Z,5.40
2023-03-16T20:51:00.135Z,4.60
2023-03-16T20:53:32.579Z,5.10
2023-03-16T20:56:03.125Z,4.50
2023-03-16T20:58:34.565Z,5.57
2023-03-16T21:01:05.735Z,4.65
2023-03-16T21:03:37.125Z,4.40
2023-03-16T21:06:22.343Z,4.53
2023-03-16T21:08:56.684Z,5.22
2023-03-16T21:11:28.510Z,4.68
2023-03-16T21:13:58.372Z,5.20
2023-03-16T21:16:28.309Z,5.13
2023-03-16T21:18:58.157Z,4.75
2023-03-16T21:21:28.266Z,4.68
2023-03-16T21:24:03.432Z,5.15
2023-03-16T21:26:34.785Z,4.57
2023-03-16T21:29:10.126Z,4.75
2023-03-16T21:31:39.986Z,4.65
2023-03-16T21:34:20.663Z,5.20
2023-03-16T21:36:50.540Z,4.80
2023-03-16T21:39:25.399Z,4.63
2023-03-16T21:41:55.491Z,4.65
2023-03-16T21:44:26.100Z,4.55
2023-03-16T21:46:55.985Z,4.45
2023-03-16T21:49:26.403Z,4.72
2023-03-16T21:51:56.680Z,4.60
2023-03-16T21:54:28.980Z,4.60
2023-03-16T21:56:59.644Z,4.22
2023-03-16T21:59:29.447Z,4.40
2023-03-16T22:02:02.329Z,4.82
2023-03-16T22:04:32.465Z,4.82
2023-03-16T22:07:02.247Z,4.95
2023-03-16T22:09:34.884Z,4.28
2023-03-16T22:12:04.746Z,4.93
2023-03-16T22:14:34.497Z,4.45
2023-03-16T22:17:04.347Z,3.80
2023-03-16T22:19:34.780Z,4.63
2023-03-16T22:22:04.626Z,4.50
2023-03-16T22:24:37.472Z,4.43
2023-03-16T22:27:08.869Z,4.65
2023-03-16T22:29:44.061Z,4.80
2023-03-16T22:32:19.100Z,4.50
2023-03-16T22:34:51.056Z,4.70
2023-03-16T22:37:24.597Z,4.53
2023-03-16T22:39:58.612Z,4.47
2023-03-16T22:42:31.223Z,4.55
2023-03-16T22:45:01.792Z,4.40
2023-03-16T22:47:34.004Z,4.63
2023-03-16T22:50:03.759Z,4.82
2023-03-16T22:52:36.347Z,4.43
2023-03-16T22:55:11.241Z,5.10
2023-03-16T22:57:41.052Z,4.78
2023-03-16T23:00:14.313Z,4.40
2023-03-16T23:02:44.891Z,4.85
2023-03-16T23:05:22.781Z,4.80
2023-03-16T23:07:52.650Z,4.43
2023-03-16T23:10:28.402Z,4.45
2023-03-16T23:12:59.415Z,4.57
2023-03-16T23:15:31.351Z,4.60
2023-03-16T23:18:01.419Z,4.47
2023-03-16T23:20:33.508Z,3.83
2023-03-16T23:23:04.161Z,4.00
2023-03-16T23:25:38.051Z,4.65
2023-03-16T23:28:09.103Z,4.00
2023-03-16T23:30:39.245Z,4.38
2023-03-16T23:33:09.155Z,4.82
2023-03-16T23:35:39.036Z,4.43
2023-03-16T23:38:08.888Z,4.75
2023-03-16T23:40:42.019Z,3.95
2023-03-16T23:43:12.032Z,4.20
2023-03-16T23:45:44.419Z,4.20
2023-03-16T23:48:18.082Z,4.18
2023-03-16T23:50:50.383Z,3.78
2023-03-16T23:53:21.765Z,4.10
2023-03-16T23:55:54.192Z,4.07
2023-03-16T23:58:24.001Z,3.97
